createdAt,value
2022-12-18T00:01:22.809Z,15.00
2022-12-18T00:03:55.940Z,15.30
2022-12-18T00:06:30.485Z,15.80
2022-12-18T00:09:04.034Z,16.30
2022-12-18T00:11:35.672Z,17.90
2022-12-18T00:14:07.725Z,18.00
2022-12-18T00:16:39.751Z,17.30
2022-12-18T00:19:13.418Z,16.90
2022-12-18T00:21:45.966Z,17.30
2022-12-18T00:24:17.568Z,18.00
2022-12-18T00:26:49.389Z,16.50
2022-12-18T00:29:20.992Z,16.40
2022-12-18T00:31:52.841Z,15.90
2022-12-18T00:34:24.794Z,15.60
2022-12-18T00:36:56.523Z,17.30
2022-12-18T00:39:28.249Z,18.20
2022-12-18T00:42:32.431Z,18.30
2022-12-18T00:45:10.652Z,19.80
2022-12-18T00:47:44.708Z,20.10
2022-12-18T00:50:16.376Z,18.50
2022-12-18T00:52:48.233Z,17.90
2022-12-18T00:55:20.453Z,20.40
2022-12-18T00:57:55.144Z,17.30
2022-12-18T01:00:27.160Z,17.20
2022-12-18T01:02:58.981Z,17.60
2022-12-18T01:05:32.062Z,16.90
2022-12-18T01:08:04.032Z,16.70
2022-12-18T01:10:35.735Z,18.20
2022-12-18T01:13:07.558Z,16.90
2022-12-18T01:15:39.279Z,17.50
2022-12-18T01:18:11.103Z,17.60
2022-12-18T01:20:42.961Z,17.00
2022-12-18T01:23:14.638Z,16.70
2022-12-18T01:25:46.222Z,17.10
2022-12-18T01:28:17.876Z,16.80
2022-12-18T01:30:49.583Z,18.50
2022-12-18T01:33:21.419Z,21.40
2022-12-18T01:35:53.046Z,19.30
2022-12-18T01:38:24.723Z,17.90
2022-12-18T01:41:02.212Z,18.40
2022-12-18T01:43:50.356Z,17.30
2022-12-18T01:46:24.328Z,17.70
2022-12-18T01:49:00.179Z,17.30
2022-12-18T01:51:34.332Z,18.90
2022-12-18T01:54:06.109Z,17.80
2022-12-18T01:56:39.673Z,17.00
2022-12-18T01:59:15.200Z,16.50
2022-12-18T02:01:48.331Z,16.70
2022-12-18T02:04:26.925Z,16.90
2022-12-18T02:07:12.013Z,17.00
2022-12-18T02:09:51.413Z,17.80
2022-12-18T02:12:25.946Z,18.20
2022-12-18T02:15:10.777Z,17.80
2022-12-18T02:17:49.190Z,18.10
2022-12-18T02:20:26.845Z,16.60
2022-12-18T02:23:14.468Z,17.50
2022-12-18T02:26:22.113Z,18.80
2022-12-18T02:28:59.308Z,17.70
2022-12-18T02:31:52.073Z,18.10
2022-12-18T02:34:36.772Z,19.20
2022-12-18T02:37:12.741Z,19.40
2022-12-18T02:39:47.818Z,18.50
2022-12-18T02:42:22.828Z,19.50
2022-12-18T02:45:15.379Z,19.40
2022-12-18T02:48:17.086Z,17.50
2022-12-18T02:50:59.043Z,17.80
2022-12-18T02:53:41.823Z,18.80
2022-12-18T02:56:20.846Z,17.50
2022-12-18T02:59:51.678Z,18.30
2022-12-18T03:02:27.515Z,17.70
2022-12-18T03:05:14.962Z,19.60
2022-12-18T03:07:54.172Z,18.30
2022-12-18T03:10:44.690Z,17.60
2022-12-18T03:13:22.425Z,18.20
2022-12-18T03:16:03.277Z,17.70
2022-12-18T03:19:00.151Z,18.30
2022-12-18T03:21:53.462Z,17.30
2022-12-18T03:24:34.277Z,16.20
2022-12-18T03:27:36.252Z,17.30
2022-12-18T03:30:11.225Z,17.40
2022-12-18T03:32:49.139Z,18.50
2022-12-18T03:35:27.253Z,15.50
2022-12-18T03:38:01.662Z,17.60
2022-12-18T03:40:59.149Z,17.40
2022-12-18T03:43:57.586Z,19.00
2022-12-18T03:46:42.504Z,17.20
2022-12-18T03:49:19.865Z,16.90
2022-12-18T03:51:56.532Z,17.10
2022-12-18T03:54:30.537Z,16.90
2022-12-18T03:57:09.618Z,18.10
2022-12-18T03:59:42.404Z,16.00
2022-12-18T04:02:17.631Z,17.90
2022-12-18T04:04:52.411Z,17.50
2022-12-18T04:07:24.507Z,16.30
2022-12-18T04:09:59.838Z,17.60
2022-12-18T04:12:33.229Z,17.70
2022-12-18T04:15:08.341Z,18.20
2022-12-18T04:20:37.584Z,15.90
2022-12-18T04:23:13.758Z,17.40
2022-12-18T04:25:45.702Z,18.50
2022-12-18T04:28:17.284Z,16.30
2022-12-18T04:30:56.788Z,17.10
2022-12-18T04:33:28.541Z,17.90
2022-12-18T04:36:00.316Z,17.20
2022-12-18T04:38:32.095Z,17.20
2022-12-18T04:41:03.800Z,16.40
2022-12-18T04:43:39.175Z,17.90
2022-12-18T04:46:14.713Z,15.70
2022-12-18T04:48:49.870Z,17.20
2022-12-18T04:53:58.733Z,15.50
2022-12-18T04:56:33.347Z,17.10
2022-12-18T04:59:25.846Z,18.80
2022-12-18T05:02:24.510Z,17.50
2022-12-18T05:04:56.456Z,17.90
2022-12-18T05:07:28.586Z,17.80
2022-12-18T05:10:00.438Z,17.40
2022-12-18T05:13:18.498Z,17.90
2022-12-18T05:15:55.337Z,16.60
2022-12-18T05:18:38.696Z,17.60
2022-12-18T05:21:11.164Z,16.00
2022-12-18T05:23:43.625Z,16.60
2022-12-18T05:26:24.157Z,16.80
2022-12-18T05:28:55.794Z,17.60
2022-12-18T05:31:35.980Z,15.40
2022-12-18T05:34:10.877Z,17.60
2022-12-18T05:36:43.396Z,15.10
2022-12-18T05:39:16.571Z,14.00
2022-12-18T05:42:00.892Z,15.40
2022-12-18T05:44:32.598Z,15.70
2022-12-18T05:47:05.359Z,16.50
2022-12-18T05:49:36.977Z,15.70
2022-12-18T05:52:29.533Z,17.40
2022-12-18T05:55:03.497Z,18.20
2022-12-18T05:57:35.386Z,17.70
2022-12-18T06:00:25.683Z,18.50
2022-12-18T06:02:57.447Z,19.00
2022-12-18T06:05:38.705Z,19.20
2022-12-18T06:08:11.851Z,17.20
2022-12-18T06:10:44.645Z,17.60
2022-12-18T06:13:16.465Z,19.30
2022-12-18T06:15:53.280Z,18.70
2022-12-18T06:18:27.427Z,19.00
2022-12-18T06:21:03.861Z,17.30
2022-12-18T06:23:42.153Z,16.70
2022-12-18T06:26:16.199Z,17.80
2022-12-18T06:28:47.940Z,18.80
2022-12-18T06:31:20.221Z,19.00
2022-12-18T06:34:14.095Z,20.40
2022-12-18T06:39:15.909Z,17.00
2022-12-18T06:41:47.591Z,19.00
2022-12-18T06:44:19.588Z,19.60
2022-12-18T06:46:51.413Z,22.00
2022-12-18T06:49:43.413Z,23.30
2022-12-18T06:52:16.034Z,21.40
2022-12-18T06:54:50.274Z,21.60
2022-12-18T06:57:22.611Z,21.50
2022-12-18T07:00:01.793Z,22.50
2022-12-18T07:02:34.632Z,23.70
2022-12-18T07:05:11.208Z,23.00
2022-12-18T07:07:44.126Z,23.70
2022-12-18T07:10:18.810Z,22.10
2022-12-18T07:12:50.850Z,24.50
2022-12-18T07:15:43.613Z,25.60
2022-12-18T07:18:38.689Z,26.90
2022-12-18T07:23:40.289Z,37.40
2022-12-18T07:26:33.157Z,42.00
2022-12-18T07:29:06.561Z,38.80
2022-12-18T07:34:11.715Z,33.90
2022-12-18T07:36:48.185Z,31.90
2022-12-18T07:39:22.123Z,30.90
2022-12-18T07:42:07.621Z,31.30
2022-12-18T07:44:39.811Z,30.80
2022-12-18T07:47:12.303Z,29.00
2022-12-18T07:49:44.313Z,27.20
2022-12-18T07:52:17.735Z,28.30
2022-12-18T07:54:51.415Z,27.00
2022-12-18T07:57:48.934Z,25.00
2022-12-18T08:00:18.161Z,21.10
2022-12-18T08:02:50.217Z,21.10
2022-12-18T08:05:23.361Z,22.20
2022-12-18T08:07:57.039Z,27.40
2022-12-18T08:10:28.866Z,30.60
2022-12-18T08:13:04.894Z,33.00
2022-12-18T08:15:37.100Z,31.20
2022-12-18T08:18:13.887Z,32.20
2022-12-18T08:20:49.255Z,34.90
2022-12-18T08:23:20.877Z,35.00
2022-12-18T08:25:52.758Z,31.50
2022-12-18T08:28:24.403Z,30.70
2022-12-18T08:30:56.529Z,30.40
2022-12-18T08:33:29.322Z,34.60
2022-12-18T08:36:02.840Z,32.40
2022-12-18T08:41:09.864Z,34.20
2022-12-18T08:44:00.780Z,33.00
2022-12-18T08:46:39.356Z,38.80
2022-12-18T08:49:12.130Z,57.30
2022-12-18T08:51:43.861Z,57.00
2022-12-18T08:54:16.537Z,49.00
2022-12-18T08:56:48.299Z,51.40
2022-12-18T08:59:20.829Z,47.20
2022-12-18T09:01:52.714Z,45.00
2022-12-18T09:04:24.773Z,44.90
2022-12-18T09:06:58.784Z,43.50
2022-12-18T09:09:30.501Z,41.70
2022-12-18T09:12:02.334Z,43.10
2022-12-18T09:14:33.998Z,42.30
2022-12-18T09:17:06.004Z,43.90
2022-12-18T09:19:37.670Z,40.90
2022-12-18T09:22:10.598Z,43.80
2022-12-18T09:24:42.392Z,40.80
2022-12-18T09:27:14.003Z,38.30
2022-12-18T09:29:46.057Z,40.50
2022-12-18T09:32:22.330Z,39.70
2022-12-18T09:34:55.000Z,38.00
2022-12-18T09:37:27.713Z,40.30
2022-12-18T09:39:59.482Z,34.30
2022-12-18T09:42:31.611Z,31.60
2022-12-18T09:45:05.456Z,36.00
2022-12-18T09:47:43.351Z,36.00
2022-12-18T09:50:41.541Z,33.10
2022-12-18T09:53:18.185Z,32.30
2022-12-18T09:55:53.375Z,35.20
2022-12-18T09:58:30.911Z,32.60
2022-12-18T10:01:14.086Z,30.10
2022-12-18T10:03:45.890Z,28.20
2022-12-18T10:06:31.844Z,29.90
2022-12-18T10:09:08.425Z,35.90
2022-12-18T10:11:51.027Z,34.50
2022-12-18T10:14:32.639Z,35.20
2022-12-18T10:17:12.587Z,30.70
2022-12-18T10:19:52.683Z,31.50
2022-12-18T10:22:37.039Z,32.50
2022-12-18T10:25:21.288Z,32.20
2022-12-18T10:27:58.716Z,29.80
2022-12-18T10:30:30.366Z,30.60
2022-12-18T10:33:07.736Z,36.30
2022-12-18T10:35:43.104Z,41.60
2022-12-18T10:38:29.007Z,35.70
2022-12-18T10:41:02.601Z,39.80
2022-12-18T10:46:18.679Z,41.90
2022-12-18T10:48:57.975Z,38.00
2022-12-18T10:51:35.548Z,36.30
2022-12-18T10:54:15.581Z,32.10
2022-12-18T10:56:47.893Z,35.30
2022-12-18T10:59:20.388Z,35.10
2022-12-18T11:01:55.896Z,35.10
2022-12-18T11:04:30.129Z,36.50
2022-12-18T11:07:05.060Z,35.70
2022-12-18T11:09:38.611Z,35.60
2022-12-18T11:14:53.524Z,34.30
2022-12-18T11:17:30.441Z,35.90
2022-12-18T11:20:04.508Z,35.00
2022-12-18T11:22:40.833Z,37.30
2022-12-18T11:25:36.680Z,38.50
2022-12-18T11:28:27.499Z,40.90
2022-12-18T11:31:14.542Z,37.40
2022-12-18T11:34:19.645Z,35.80
2022-12-18T11:36:47.939Z,35.60
2022-12-18T11:39:26.780Z,53.90
2022-12-18T11:42:15.517Z,32.30
2022-12-18T11:44:50.710Z,26.90
2022-12-18T11:47:30.675Z,31.20
2022-12-18T11:50:05.736Z,29.80
2022-12-18T11:52:40.785Z,28.70
2022-12-18T11:55:16.448Z,25.20
2022-12-18T11:57:58.123Z,24.80
2022-12-18T12:00:31.230Z,27.20
2022-12-18T12:03:29.558Z,21.80
2022-12-18T12:06:15.551Z,20.30
2022-12-18T12:08:59.367Z,23.80
2022-12-18T12:11:43.401Z,23.60
2022-12-18T12:14:44.602Z,24.00
2022-12-18T12:17:26.177Z,25.40
2022-12-18T12:20:06.284Z,24.20
2022-12-18T12:22:49.482Z,23.30
2022-12-18T12:25:40.497Z,26.60
2022-12-18T12:28:26.675Z,31.00
2022-12-18T12:31:08.263Z,24.60
2022-12-18T12:33:54.104Z,27.50
2022-12-18T12:36:35.681Z,30.40
2022-12-18T12:39:13.794Z,26.50
2022-12-18T12:42:06.641Z,24.10
2022-12-18T12:44:44.674Z,22.80
2022-12-18T12:47:20.286Z,25.10
2022-12-18T12:49:56.099Z,25.30
2022-12-18T12:52:35.391Z,23.80
2022-12-18T12:55:15.027Z,23.60
2022-12-18T12:58:09.766Z,26.20
2022-12-18T13:00:49.701Z,27.30
2022-12-18T13:03:31.589Z,23.90
2022-12-18T13:06:07.196Z,26.40
2022-12-18T13:08:58.611Z,27.60
2022-12-18T13:11:59.773Z,26.00
2022-12-18T13:14:34.881Z,23.30
2022-12-18T13:17:31.950Z,25.80
2022-12-18T13:20:14.493Z,25.70
2022-12-18T13:22:51.241Z,25.20
2022-12-18T13:25:40.261Z,26.70
2022-12-18T13:28:15.035Z,23.40
2022-12-18T13:30:55.383Z,23.20
2022-12-18T13:34:16.467Z,26.80
2022-12-18T13:36:38.121Z,27.20
2022-12-18T13:43:00.244Z,25.90
2022-12-18T13:46:03.617Z,24.50
2022-12-18T13:48:38.958Z,28.30
2022-12-18T13:51:13.157Z,32.00
2022-12-18T13:53:50.778Z,31.40
2022-12-18T13:56:29.573Z,31.90
2022-12-18T13:59:22.894Z,35.40
2022-12-18T14:02:04.214Z,32.80
2022-12-18T14:04:38.131Z,31.40
2022-12-18T14:09:47.075Z,26.60
2022-12-18T14:12:41.095Z,28.40
2022-12-18T14:15:30.057Z,24.90
2022-12-18T14:18:15.398Z,26.00
2022-12-18T14:20:54.632Z,28.20
2022-12-18T14:23:34.799Z,30.60
2022-12-18T14:26:29.995Z,28.80
2022-12-18T14:29:20.504Z,29.40
2022-12-18T14:32:17.461Z,29.60
2022-12-18T14:34:52.540Z,28.70
2022-12-18T14:37:26.702Z,29.90
2022-12-18T14:40:10.442Z,33.30
2022-12-18T14:42:44.219Z,34.10
2022-12-18T14:45:44.140Z,38.40
2022-12-18T14:48:23.101Z,35.40
2022-12-18T14:51:04.431Z,36.70
2022-12-18T14:53:46.293Z,39.90
2022-12-18T14:56:24.911Z,41.30
2022-12-18T14:58:58.912Z,44.60
2022-12-18T15:01:35.249Z,44.60
2022-12-18T15:04:28.387Z,48.10
2022-12-18T15:07:14.665Z,53.00
2022-12-18T15:10:13.358Z,56.10
2022-12-18T15:12:47.640Z,58.00
2022-12-18T15:15:51.762Z,60.40
2022-12-18T15:20:57.932Z,50.50
2022-12-18T15:23:35.888Z,47.30
2022-12-18T15:26:11.433Z,48.10
2022-12-18T15:28:47.889Z,48.10
2022-12-18T15:31:33.074Z,47.70
2022-12-18T15:34:21.378Z,44.20
2022-12-18T15:36:53.932Z,42.80
2022-12-18T15:39:25.752Z,45.80
2022-12-18T15:42:15.256Z,47.40
2022-12-18T15:44:47.128Z,45.50
2022-12-18T15:47:18.799Z,43.70
2022-12-18T15:49:50.471Z,54.00
2022-12-18T15:52:28.171Z,36.40
2022-12-18T15:55:17.420Z,45.30
2022-12-18T15:57:49.019Z,46.70
2022-12-18T16:00:21.768Z,41.80
2022-12-18T16:02:53.634Z,47.80
2022-12-18T16:05:27.923Z,42.70
2022-12-18T16:07:59.695Z,45.50
2022-12-18T16:10:31.607Z,45.20
2022-12-18T16:13:03.389Z,43.90
2022-12-18T16:15:35.139Z,42.20
2022-12-18T16:18:07.171Z,36.90
2022-12-18T16:20:40.318Z,30.20
2022-12-18T16:23:12.110Z,30.40
2022-12-18T16:25:45.276Z,32.20
2022-12-18T16:28:16.913Z,33.90
2022-12-18T16:30:49.087Z,34.10
2022-12-18T16:33:20.804Z,33.90
2022-12-18T16:35:56.299Z,34.10
2022-12-18T16:38:28.063Z,37.30
2022-12-18T16:41:17.625Z,36.80
2022-12-18T16:43:54.664Z,38.40
2022-12-18T16:46:27.368Z,37.90
2022-12-18T16:49:00.571Z,40.10
2022-12-18T16:51:32.654Z,39.90
2022-12-18T16:54:09.657Z,44.60
2022-12-18T16:56:44.129Z,38.00
2022-12-18T16:59:15.764Z,37.80
2022-12-18T17:01:47.782Z,36.40
2022-12-18T17:04:19.662Z,37.70
2022-12-18T17:06:52.148Z,40.40
2022-12-18T17:09:26.372Z,34.30
2022-12-18T17:11:58.026Z,38.20
2022-12-18T17:14:29.765Z,41.20
2022-12-18T17:19:54.908Z,45.40
2022-12-18T17:22:26.834Z,45.30
2022-12-18T17:24:58.436Z,46.40
2022-12-18T17:27:30.081Z,48.70
2022-12-18T17:30:01.825Z,43.30
2022-12-18T17:32:33.423Z,44.10
2022-12-18T17:35:08.872Z,47.10
2022-12-18T17:37:40.764Z,46.50
2022-12-18T17:40:13.774Z,45.90
2022-12-18T17:42:45.457Z,42.80
2022-12-18T17:45:17.229Z,46.00
2022-12-18T17:47:48.871Z,43.50
2022-12-18T17:50:20.844Z,46.80
2022-12-18T17:52:56.443Z,45.60
2022-12-18T17:55:28.867Z,45.70
2022-12-18T17:58:00.842Z,44.80
2022-12-18T18:00:32.624Z,45.90
2022-12-18T18:03:04.567Z,47.10
2022-12-18T18:05:36.696Z,45.60
2022-12-18T18:08:09.391Z,47.40
2022-12-18T18:10:43.439Z,46.00
2022-12-18T18:13:46.389Z,46.20
2022-12-18T18:16:19.405Z,45.20
2022-12-18T18:18:52.208Z,45.70
2022-12-18T18:21:23.978Z,43.40
2022-12-18T18:26:29.738Z,43.70
2022-12-18T18:29:03.989Z,42.10
2022-12-18T18:31:41.017Z,41.50
2022-12-18T18:34:18.154Z,45.20
2022-12-18T18:36:49.840Z,43.40
2022-12-18T18:39:22.144Z,44.20
2022-12-18T18:41:53.853Z,42.60
2022-12-18T18:44:26.457Z,40.50
2022-12-18T18:46:59.584Z,38.50
2022-12-18T18:49:32.263Z,41.00
2022-12-18T18:52:03.987Z,40.60
2022-12-18T18:54:35.949Z,42.40
2022-12-18T18:57:29.983Z,46.40
2022-12-18T19:02:31.706Z,43.40
2022-12-18T19:05:03.937Z,43.60
2022-12-18T19:07:35.627Z,44.20
2022-12-18T19:10:09.267Z,46.80
2022-12-18T19:12:58.886Z,43.30
2022-12-18T19:15:30.689Z,44.90
2022-12-18T19:18:02.404Z,43.70
2022-12-18T19:20:35.183Z,51.00
2022-12-18T19:23:06.862Z,46.00
2022-12-18T19:25:41.798Z,49.70
2022-12-18T19:28:21.401Z,46.50
2022-12-18T19:30:59.223Z,45.30
2022-12-18T19:33:43.026Z,47.70
2022-12-18T19:36:22.594Z,45.40
2022-12-18T19:38:55.637Z,47.20
2022-12-18T19:41:31.137Z,44.10
2022-12-18T19:44:07.629Z,42.60
2022-12-18T19:46:41.864Z,44.40
2022-12-18T19:49:18.224Z,41.00
2022-12-18T19:51:50.334Z,40.30
2022-12-18T19:54:22.132Z,42.90
2022-12-18T19:56:53.748Z,42.50
2022-12-18T19:59:25.377Z,41.50
2022-12-18T20:01:57.251Z,40.10
2022-12-18T20:04:29.173Z,43.50
2022-12-18T20:07:00.862Z,41.30
2022-12-18T20:09:33.104Z,42.70
2022-12-18T20:12:05.870Z,42.40
2022-12-18T20:14:37.787Z,47.50
2022-12-18T20:17:09.607Z,44.70
2022-12-18T20:19:41.980Z,43.70
2022-12-18T20:22:14.071Z,45.80
2022-12-18T20:24:46.363Z,44.90
2022-12-18T20:27:23.760Z,43.70
2022-12-18T20:29:55.888Z,42.80
2022-12-18T20:32:35.406Z,41.80
2022-12-18T20:35:10.368Z,40.50
2022-12-18T20:40:42.144Z,40.70
2022-12-18T20:43:17.302Z,39.20
2022-12-18T20:45:49.251Z,40.60
2022-12-18T20:48:26.365Z,43.70
2022-12-18T20:51:03.847Z,42.70
2022-12-18T20:53:36.836Z,42.60
2022-12-18T20:56:12.727Z,40.40
2022-12-18T20:58:46.012Z,42.90
2022-12-18T21:01:21.137Z,42.30
2022-12-18T21:03:54.071Z,40.30
2022-12-18T21:06:25.957Z,39.20
2022-12-18T21:08:57.615Z,41.00
2022-12-18T21:11:49.891Z,41.60
2022-12-18T21:14:24.050Z,40.80
2022-12-18T21:17:02.010Z,39.10
2022-12-18T21:19:34.027Z,38.20
2022-12-18T21:22:06.140Z,40.70
2022-12-18T21:24:37.976Z,42.60
2022-12-18T21:27:09.897Z,44.40
2022-12-18T21:29:46.993Z,46.30
2022-12-18T21:32:18.849Z,51.30
2022-12-18T21:34:52.252Z,63.70
2022-12-18T21:37:23.997Z,59.80
2022-12-18T21:39:55.654Z,62.50
2022-12-18T21:42:44.148Z,62.10
2022-12-18T21:45:15.739Z,66.40
2022-12-18T21:47:47.520Z,66.90
2022-12-18T21:50:19.589Z,64.10
2022-12-18T21:52:51.452Z,63.70
2022-12-18T21:55:23.155Z,63.00
2022-12-18T21:57:56.409Z,59.70
2022-12-18T22:00:28.118Z,59.70
2022-12-18T22:03:17.547Z,59.50
2022-12-18T22:05:53.317Z,57.40
2022-12-18T22:08:39.845Z,55.90
2022-12-18T22:11:15.492Z,57.10
2022-12-18T22:13:49.066Z,58.40
2022-12-18T22:16:23.147Z,55.60
2022-12-18T22:18:55.904Z,57.00
2022-12-18T22:21:30.346Z,55.60
2022-12-18T22:24:03.454Z,62.90
2022-12-18T22:29:35.275Z,53.10
2022-12-18T22:32:10.370Z,54.50
2022-12-18T22:34:43.740Z,46.30
2022-12-18T22:37:17.592Z,44.90
2022-12-18T22:39:49.210Z,45.20
2022-12-18T22:42:21.610Z,45.50
2022-12-18T22:44:53.192Z,42.20
2022-12-18T22:47:29.358Z,40.30
2022-12-18T22:50:03.079Z,45.40
2022-12-18T22:52:34.897Z,51.90
2022-12-18T22:55:07.871Z,49.90
2022-12-18T22:57:41.168Z,46.10
2022-12-18T23:00:23.940Z,45.10
2022-12-18T23:03:00.641Z,41.80
2022-12-18T23:05:34.273Z,42.90
2022-12-18T23:08:06.306Z,42.80
2022-12-18T23:10:40.741Z,42.60
2022-12-18T23:13:12.409Z,46.10
2022-12-18T23:15:45.281Z,50.60
2022-12-18T23:18:17.788Z,48.30
2022-12-18T23:20:50.541Z,42.70
2022-12-18T23:23:23.365Z,39.70
2022-12-18T23:26:03.106Z,38.50
2022-12-18T23:28:36.722Z,40.70
2022-12-18T23:31:12.750Z,44.70
2022-12-18T23:33:48.185Z,40.20
2022-12-18T23:36:23.108Z,44.30
2022-12-18T23:38:57.370Z,42.40
2022-12-18T23:41:32.383Z,46.60
2022-12-18T23:44:04.008Z,44.80
2022-12-18T23:46:37.549Z,41.90
2022-12-18T23:49:09.387Z,42.60
2022-12-18T23:51:43.831Z,45.50
2022-12-18T23:54:15.734Z,42.10
2022-12-18T23:56:47.398Z,43.20
2022-12-18T23:59:23.953Z,44.20
